sensor_id;sensor_type;location;lat;lon;timestamp;P1;durP1;ratioP1;P2;durP2;ratioP2
75924;SDS011;64604;44.752;37.674;2022-11-18T00:00:03;16.35;;;9.52;;
75924;SDS011;64604;44.752;37.674;2022-11-18T00:01:06;20.13;;;10.20;;
75924;SDS011;64604;44.752;37.674;2022-11-18T00:02:10;17.02;;;10.32;;
75924;SDS011;64604;44.752;37.674;2022-11-18T00:03:11;20.20;;;10.93;;
75924;SDS011;64604;44.752;37.674;2022-11-18T00:04:13;23.63;;;11.85;;
75924;SDS011;64604;44.752;37.674;2022-11-18T00:05:15;19.80;;;11.35;;
75924;SDS011;64604;44.752;37.674;2022-11-18T00:06:18;22.58;;;11.68;;
75924;SDS011;64604;44.752;37.674;2022-11-18T00:07:21;24.13;;;11.25;;
75924;SDS011;64604;44.752;37.674;2022-11-18T00:08:23;24.20;;;12.07;;
75924;SDS011;64604;44.752;37.674;2022-11-18T00:09:25;24.10;;;11.50;;
75924;SDS011;64604;44.752;37.674;2022-11-18T00:10:27;23.10;;;11.52;;
75924;SDS011;64604;44.752;37.674;2022-11-18T00:11:28;15.38;;;9.63;;
75924;SDS011;64604;44.752;37.674;2022-11-18T00:12:49;20.23;;;9.93;;
75924;SDS011;64604;44.752;37.674;2022-11-18T00:14:16;15.02;;;6.57;;
75924;SDS011;64604;44.752;37.674;2022-11-18T00:15:19;17.27;;;8.00;;
75924;SDS011;64604;44.752;37.674;2022-11-18T00:16:21;12.18;;;6.05;;
75924;SDS011;64604;44.752;37.674;2022-11-18T00:17:23;11.20;;;6.35;;
75924;SDS011;64604;44.752;37.674;2022-11-18T00:18:25;13.57;;;5.78;;
75924;SDS011;64604;44.752;37.674;2022-11-18T00:19:28;12.40;;;6.38;;
75924;SDS011;64604;44.752;37.674;2022-11-18T00:20:32;11.18;;;5.63;;
75924;SDS011;64604;44.752;37.674;2022-11-18T00:21:34;12.50;;;5.80;;
75924;SDS011;64604;44.752;37.674;2022-11-18T00:22:35;20.52;;;6.45;;
75924;SDS011;64604;44.752;37.674;2022-11-18T00:23:37;15.98;;;5.60;;
75924;SDS011;64604;44.752;37.674;2022-11-18T00:24:39;17.02;;;5.70;;
75924;SDS011;64604;44.752;37.674;2022-11-18T00:25:41;16.58;;;6.50;;
75924;SDS011;64604;44.752;37.674;2022-11-18T00:26:42;18.73;;;6.50;;
75924;SDS011;64604;44.752;37.674;2022-11-18T00:27:44;18.00;;;6.30;;
75924;SDS011;64604;44.752;37.674;2022-11-18T00:28:46;15.20;;;6.75;;
75924;SDS011;64604;44.752;37.674;2022-11-18T00:29:47;12.48;;;6.20;;
75924;SDS011;64604;44.752;37.674;2022-11-18T00:30:49;13.13;;;5.63;;
75924;SDS011;64604;44.752;37.674;2022-11-18T00:31:50;13.93;;;5.57;;
75924;SDS011;64604;44.752;37.674;2022-11-18T00:32:52;14.20;;;5.53;;
75924;SDS011;64604;44.752;37.674;2022-11-18T00:33:54;14.07;;;5.75;;
75924;SDS011;64604;44.752;37.674;2022-11-18T00:34:55;13.32;;;5.50;;
75924;SDS011;64604;44.752;37.674;2022-11-18T00:35:57;15.38;;;5.90;;
75924;SDS011;64604;44.752;37.674;2022-11-18T00:36:59;12.30;;;5.60;;
75924;SDS011;64604;44.752;37.674;2022-11-18T00:38:00;15.10;;;5.63;;
75924;SDS011;64604;44.752;37.674;2022-11-18T00:39:02;9.65;;;5.22;;
75924;SDS011;64604;44.752;37.674;2022-11-18T00:40:04;10.77;;;4.97;;
75924;SDS011;64604;44.752;37.674;2022-11-18T00:41:07;14.65;;;5.78;;
75924;SDS011;64604;44.752;37.674;2022-11-18T00:42:10;9.85;;;5.13;;
75924;SDS011;64604;44.752;37.674;2022-11-18T00:43:31;12.75;;;5.10;;
75924;SDS011;64604;44.752;37.674;2022-11-18T00:44:34;12.52;;;5.40;;
75924;SDS011;64604;44.752;37.674;2022-11-18T00:45:35;10.65;;;5.05;;
75924;SDS011;64604;44.752;37.674;2022-11-18T00:46:37;11.95;;;5.07;;
75924;SDS011;64604;44.752;37.674;2022-11-18T00:47:38;14.57;;;5.35;;
75924;SDS011;64604;44.752;37.674;2022-11-18T00:48:40;14.48;;;6.07;;
75924;SDS011;64604;44.752;37.674;2022-11-18T00:49:41;17.15;;;5.68;;
75924;SDS011;64604;44.752;37.674;2022-11-18T00:50:43;16.02;;;5.60;;
75924;SDS011;64604;44.752;37.674;2022-11-18T00:51:45;12.02;;;5.85;;
75924;SDS011;64604;44.752;37.674;2022-11-18T00:52:46;15.57;;;5.32;;
75924;SDS011;64604;44.752;37.674;2022-11-18T00:53:48;11.15;;;5.20;;
75924;SDS011;64604;44.752;37.674;2022-11-18T00:54:49;10.30;;;4.82;;
75924;SDS011;64604;44.752;37.674;2022-11-18T00:55:51;14.43;;;5.20;;
75924;SDS011;64604;44.752;37.674;2022-11-18T00:56:53;11.60;;;4.85;;
75924;SDS011;64604;44.752;37.674;2022-11-18T00:57:55;13.10;;;5.22;;
75924;SDS011;64604;44.752;37.674;2022-11-18T00:58:56;12.30;;;4.80;;
75924;SDS011;64604;44.752;37.674;2022-11-18T00:59:58;10.85;;;4.78;;
75924;SDS011;64604;44.752;37.674;2022-11-18T01:01:00;19.42;;;5.20;;
75924;SDS011;64604;44.752;37.674;2022-11-18T01:02:01;10.52;;;4.85;;
75924;SDS011;64604;44.752;37.674;2022-11-18T01:03:03;14.38;;;5.05;;
75924;SDS011;64604;44.752;37.674;2022-11-18T01:04:04;11.80;;;5.00;;
75924;SDS011;64604;44.752;37.674;2022-11-18T01:05:06;11.80;;;5.10;;
75924;SDS011;64604;44.752;37.674;2022-11-18T01:06:08;11.52;;;5.15;;
75924;SDS011;64604;44.752;37.674;2022-11-18T01:07:10;11.50;;;5.25;;
75924;SDS011;64604;44.752;37.674;2022-11-18T01:08:11;15.45;;;5.40;;
75924;SDS011;64604;44.752;37.674;2022-11-18T01:09:13;15.02;;;6.15;;
75924;SDS011;64604;44.752;37.674;2022-11-18T01:10:15;13.90;;;4.88;;
75924;SDS011;64604;44.752;37.674;2022-11-18T01:11:17;13.13;;;5.25;;
75924;SDS011;64604;44.752;37.674;2022-11-18T01:12:37;13.27;;;5.32;;
75924;SDS011;64604;44.752;37.674;2022-11-18T01:13:57;21.10;;;6.00;;
75924;SDS011;64604;44.752;37.674;2022-11-18T01:14:58;14.68;;;5.82;;
75924;SDS011;64604;44.752;37.674;2022-11-18T01:16:00;14.05;;;5.72;;
75924;SDS011;64604;44.752;37.674;2022-11-18T01:17:01;14.77;;;5.60;;
75924;SDS011;64604;44.752;37.674;2022-11-18T01:18:03;19.02;;;6.53;;
75924;SDS011;64604;44.752;37.674;2022-11-18T01:19:04;15.00;;;6.00;;
75924;SDS011;64604;44.752;37.674;2022-11-18T01:20:06;15.90;;;6.53;;
75924;SDS011;64604;44.752;37.674;2022-11-18T01:21:08;11.52;;;5.22;;
75924;SDS011;64604;44.752;37.674;2022-11-18T01:22:10;14.35;;;5.85;;
75924;SDS011;64604;44.752;37.674;2022-11-18T01:23:11;14.13;;;6.05;;
75924;SDS011;64604;44.752;37.674;2022-11-18T01:24:14;13.48;;;5.38;;
75924;SDS011;64604;44.752;37.674;2022-11-18T01:25:15;17.20;;;6.47;;
75924;SDS011;64604;44.752;37.674;2022-11-18T01:26:17;15.50;;;5.85;;
75924;SDS011;64604;44.752;37.674;2022-11-18T01:27:19;12.27;;;6.65;;
75924;SDS011;64604;44.752;37.674;2022-11-18T01:28:20;10.75;;;5.80;;
75924;SDS011;64604;44.752;37.674;2022-11-18T01:29:22;16.23;;;5.85;;
75924;SDS011;64604;44.752;37.674;2022-11-18T01:30:24;16.02;;;6.55;;
75924;SDS011;64604;44.752;37.674;2022-11-18T01:31:25;15.23;;;6.25;;
75924;SDS011;64604;44.752;37.674;2022-11-18T01:32:27;14.00;;;5.38;;
75924;SDS011;64604;44.752;37.674;2022-11-18T01:33:29;11.73;;;5.95;;
75924;SDS011;64604;44.752;37.674;2022-11-18T01:34:30;12.95;;;5.68;;
75924;SDS011;64604;44.752;37.674;2022-11-18T01:35:39;14.65;;;5.60;;
75924;SDS011;64604;44.752;37.674;2022-11-18T01:36:42;13.32;;;5.15;;
75924;SDS011;64604;44.752;37.674;2022-11-18T01:37:43;15.10;;;6.22;;
75924;SDS011;64604;44.752;37.674;2022-11-18T01:38:45;12.55;;;6.50;;
75924;SDS011;64604;44.752;37.674;2022-11-18T01:39:47;11.90;;;5.32;;
75924;SDS011;64604;44.752;37.674;2022-11-18T01:40:49;13.98;;;6.40;;
75924;SDS011;64604;44.752;37.674;2022-11-18T01:41:50;13.32;;;5.82;;
75924;SDS011;64604;44.752;37.674;2022-11-18T01:42:52;14.38;;;6.20;;
75924;SDS011;64604;44.752;37.674;2022-11-18T01:43:57;15.07;;;6.18;;
75924;SDS011;64604;44.752;37.674;2022-11-18T01:46:09;17.08;;;6.45;;
75924;SDS011;64604;44.752;37.674;2022-11-18T01:47:11;15.35;;;6.22;;
75924;SDS011;64604;44.752;37.674;2022-11-18T01:48:26;14.82;;;6.30;;
75924;SDS011;64604;44.752;37.674;2022-11-18T01:49:31;16.25;;;6.00;;
75924;SDS011;64604;44.752;37.674;2022-11-18T01:50:34;11.23;;;5.60;;
75924;SDS011;64604;44.752;37.674;2022-11-18T01:51:47;11.63;;;5.70;;
75924;SDS011;64604;44.752;37.674;2022-11-18T01:52:52;10.77;;;5.93;;
75924;SDS011;64604;44.752;37.674;2022-11-18T01:54:02;10.80;;;5.95;;
75924;SDS011;64604;44.752;37.674;2022-11-18T01:56:23;13.80;;;6.60;;
75924;SDS011;64604;44.752;37.674;2022-11-18T01:57:29;12.98;;;5.82;;
75924;SDS011;64604;44.752;37.674;2022-11-18T01:58:39;13.82;;;6.30;;
75924;SDS011;64604;44.752;37.674;2022-11-18T01:59:45;11.50;;;6.18;;
75924;SDS011;64604;44.752;37.674;2022-11-18T02:00:50;10.43;;;5.90;;
75924;SDS011;64604;44.752;37.674;2022-11-18T02:01:55;12.45;;;5.65;;
75924;SDS011;64604;44.752;37.674;2022-11-18T02:02:57;13.38;;;6.90;;
75924;SDS011;64604;44.752;37.674;2022-11-18T02:04:01;10.98;;;6.20;;
75924;SDS011;64604;44.752;37.674;2022-11-18T02:05:03;14.48;;;6.57;;
75924;SDS011;64604;44.752;37.674;2022-11-18T02:06:07;13.00;;;5.90;;
75924;SDS011;64604;44.752;37.674;2022-11-18T02:07:09;11.13;;;6.32;;
75924;SDS011;64604;44.752;37.674;2022-11-18T02:08:12;15.00;;;6.32;;
75924;SDS011;64604;44.752;37.674;2022-11-18T02:09:15;10.95;;;6.57;;
75924;SDS011;64604;44.752;37.674;2022-11-18T02:10:18;11.43;;;7.00;;
75924;SDS011;64604;44.752;37.674;2022-11-18T02:11:22;10.20;;;6.25;;
75924;SDS011;64604;44.752;37.674;2022-11-18T02:12:42;12.50;;;6.40;;
75924;SDS011;64604;44.752;37.674;2022-11-18T02:13:44;10.98;;;5.93;;
75924;SDS011;64604;44.752;37.674;2022-11-18T02:14:45;14.55;;;6.80;;
75924;SDS011;64604;44.752;37.674;2022-11-18T02:15:52;13.43;;;5.97;;
75924;SDS011;64604;44.752;37.674;2022-11-18T02:18:54;15.98;;;7.07;;
75924;SDS011;64604;44.752;37.674;2022-11-18T02:20:11;12.98;;;6.75;;
75924;SDS011;64604;44.752;37.674;2022-11-18T02:23:35;11.65;;;6.35;;
75924;SDS011;64604;44.752;37.674;2022-11-18T02:24:25;18.70;;;8.18;;
75924;SDS011;64604;44.752;37.674;2022-11-18T02:25:54;11.43;;;6.35;;
75924;SDS011;64604;44.752;37.674;2022-11-18T02:30:00;14.25;;;6.30;;
75924;SDS011;64604;44.752;37.674;2022-11-18T02:32:14;11.60;;;5.60;;
75924;SDS011;64604;44.752;37.674;2022-11-18T02:33:24;12.40;;;6.72;;
75924;SDS011;64604;44.752;37.674;2022-11-18T02:36:08;11.32;;;6.13;;
75924;SDS011;64604;44.752;37.674;2022-11-18T02:37:37;13.38;;;6.43;;
75924;SDS011;64604;44.752;37.674;2022-11-18T02:38:41;15.15;;;7.00;;
75924;SDS011;64604;44.752;37.674;2022-11-18T02:40:09;14.35;;;6.95;;
75924;SDS011;64604;44.752;37.674;2022-11-18T02:41:16;15.80;;;6.60;;
75924;SDS011;64604;44.752;37.674;2022-11-18T02:42:23;11.63;;;6.10;;
75924;SDS011;64604;44.752;37.674;2022-11-18T02:43:28;11.88;;;6.22;;
75924;SDS011;64604;44.752;37.674;2022-11-18T02:44:33;12.65;;;5.90;;
75924;SDS011;64604;44.752;37.674;2022-11-18T02:45:38;12.38;;;5.75;;
75924;SDS011;64604;44.752;37.674;2022-11-18T02:46:46;12.95;;;6.00;;
75924;SDS011;64604;44.752;37.674;2022-11-18T02:47:53;11.15;;;5.55;;
75924;SDS011;64604;44.752;37.674;2022-11-18T02:48:56;9.13;;;5.65;;
75924;SDS011;64604;44.752;37.674;2022-11-18T02:49:59;14.38;;;5.72;;
75924;SDS011;64604;44.752;37.674;2022-11-18T02:51:07;9.73;;;5.53;;
75924;SDS011;64604;44.752;37.674;2022-11-18T02:52:11;12.68;;;5.57;;
75924;SDS011;64604;44.752;37.674;2022-11-18T02:53:14;9.98;;;5.85;;
75924;SDS011;64604;44.752;37.674;2022-11-18T02:54:19;10.38;;;5.63;;
75924;SDS011;64604;44.752;37.674;2022-11-18T02:55:23;7.32;;;5.20;;
75924;SDS011;64604;44.752;37.674;2022-11-18T02:56:29;12.75;;;5.57;;
75924;SDS011;64604;44.752;37.674;2022-11-18T02:57:33;9.93;;;5.65;;
75924;SDS011;64604;44.752;37.674;2022-11-18T02:58:36;10.20;;;5.60;;
75924;SDS011;64604;44.752;37.674;2022-11-18T02:59:38;11.07;;;5.43;;
75924;SDS011;64604;44.752;37.674;2022-11-18T03:00:40;13.85;;;5.30;;
75924;SDS011;64604;44.752;37.674;2022-11-18T03:01:41;10.27;;;5.28;;
75924;SDS011;64604;44.752;37.674;2022-11-18T03:02:44;10.43;;;5.70;;
75924;SDS011;64604;44.752;37.674;2022-11-18T03:03:47;8.95;;;5.35;;
75924;SDS011;64604;44.752;37.674;2022-11-18T03:04:50;11.85;;;5.22;;
75924;SDS011;64604;44.752;37.674;2022-11-18T03:05:59;11.23;;;4.93;;
75924;SDS011;64604;44.752;37.674;2022-11-18T03:07:13;9.57;;;5.13;;
75924;SDS011;64604;44.752;37.674;2022-11-18T03:08:21;11.63;;;4.95;;
75924;SDS011;64604;44.752;37.674;2022-11-18T03:09:30;9.20;;;5.57;;
75924;SDS011;64604;44.752;37.674;2022-11-18T03:10:42;9.60;;;5.13;;
75924;SDS011;64604;44.752;37.674;2022-11-18T03:13:05;9.98;;;5.60;;
75924;SDS011;64604;44.752;37.674;2022-11-18T03:14:25;10.13;;;5.45;;
75924;SDS011;64604;44.752;37.674;2022-11-18T03:15:48;11.75;;;5.13;;
75924;SDS011;64604;44.752;37.674;2022-11-18T03:17:16;9.20;;;5.47;;
75924;SDS011;64604;44.752;37.674;2022-11-18T03:18:26;12.73;;;5.88;;
75924;SDS011;64604;44.752;37.674;2022-11-18T03:21:22;12.18;;;5.68;;
75924;SDS011;64604;44.752;37.674;2022-11-18T03:22:33;12.20;;;5.88;;
75924;SDS011;64604;44.752;37.674;2022-11-18T03:24:07;11.23;;;5.88;;
75924;SDS011;64604;44.752;37.674;2022-11-18T03:26:35;11.68;;;5.80;;
75924;SDS011;64604;44.752;37.674;2022-11-18T03:29:14;11.85;;;6.40;;
75924;SDS011;64604;44.752;37.674;2022-11-18T03:30:21;12.25;;;5.95;;
75924;SDS011;64604;44.752;37.674;2022-11-18T03:31:28;11.32;;;6.13;;
75924;SDS011;64604;44.752;37.674;2022-11-18T03:32:41;9.98;;;6.13;;
75924;SDS011;64604;44.752;37.674;2022-11-18T03:34:09;10.75;;;6.28;;
75924;SDS011;64604;44.752;37.674;2022-11-18T03:35:16;12.70;;;6.30;;
75924;SDS011;64604;44.752;37.674;2022-11-18T03:36:22;12.27;;;6.18;;
75924;SDS011;64604;44.752;37.674;2022-11-18T03:37:27;13.50;;;6.40;;
75924;SDS011;64604;44.752;37.674;2022-11-18T03:38:35;13.38;;;6.00;;
75924;SDS011;64604;44.752;37.674;2022-11-18T03:39:42;12.15;;;5.68;;
75924;SDS011;64604;44.752;37.674;2022-11-18T03:40:50;11.25;;;6.03;;
75924;SDS011;64604;44.752;37.674;2022-11-18T03:41:58;12.20;;;6.45;;
75924;SDS011;64604;44.752;37.674;2022-11-18T03:43:11;13.77;;;6.90;;
75924;SDS011;64604;44.752;37.674;2022-11-18T03:44:18;10.77;;;6.20;;
75924;SDS011;64604;44.752;37.674;2022-11-18T03:45:33;10.60;;;6.30;;
75924;SDS011;64604;44.752;37.674;2022-11-18T03:46:43;11.07;;;6.50;;
75924;SDS011;64604;44.752;37.674;2022-11-18T03:48:18;11.88;;;6.85;;
75924;SDS011;64604;44.752;37.674;2022-11-18T03:49:25;13.38;;;7.07;;
75924;SDS011;64604;44.752;37.674;2022-11-18T03:50:42;14.25;;;6.78;;
75924;SDS011;64604;44.752;37.674;2022-11-18T03:51:54;11.38;;;6.82;;
75924;SDS011;64604;44.752;37.674;2022-11-18T03:53:01;10.02;;;5.90;;
75924;SDS011;64604;44.752;37.674;2022-11-18T03:54:08;12.50;;;6.47;;
75924;SDS011;64604;44.752;37.674;2022-11-18T03:55:15;9.05;;;5.78;;
75924;SDS011;64604;44.752;37.674;2022-11-18T03:56:23;11.75;;;6.35;;
75924;SDS011;64604;44.752;37.674;2022-11-18T03:57:35;14.25;;;6.80;;
75924;SDS011;64604;44.752;37.674;2022-11-18T03:58:53;13.40;;;6.28;;
75924;SDS011;64604;44.752;37.674;2022-11-18T04:00:05;12.70;;;6.75;;
75924;SDS011;64604;44.752;37.674;2022-11-18T04:01:13;12.30;;;6.70;;
75924;SDS011;64604;44.752;37.674;2022-11-18T04:02:21;12.65;;;6.55;;
75924;SDS011;64604;44.752;37.674;2022-11-18T04:03:25;12.23;;;7.20;;
75924;SDS011;64604;44.752;37.674;2022-11-18T04:04:27;13.07;;;7.25;;
75924;SDS011;64604;44.752;37.674;2022-11-18T04:05:30;13.32;;;7.10;;
75924;SDS011;64604;44.752;37.674;2022-11-18T04:06:37;11.73;;;6.63;;
75924;SDS011;64604;44.752;37.674;2022-11-18T04:09:32;12.52;;;6.53;;
75924;SDS011;64604;44.752;37.674;2022-11-18T04:10:47;12.80;;;7.40;;
75924;SDS011;64604;44.752;37.674;2022-11-18T04:11:56;10.77;;;6.63;;
75924;SDS011;64604;44.752;37.674;2022-11-18T04:13:06;11.13;;;6.70;;
75924;SDS011;64604;44.752;37.674;2022-11-18T04:14:09;12.13;;;6.82;;
75924;SDS011;64604;44.752;37.674;2022-11-18T04:15:13;14.07;;;6.90;;
75924;SDS011;64604;44.752;37.674;2022-11-18T04:16:15;9.52;;;6.40;;
75924;SDS011;64604;44.752;37.674;2022-11-18T04:17:19;14.05;;;6.78;;
75924;SDS011;64604;44.752;37.674;2022-11-18T04:18:22;12.57;;;7.18;;
75924;SDS011;64604;44.752;37.674;2022-11-18T04:19:24;12.32;;;7.07;;
75924;SDS011;64604;44.752;37.674;2022-11-18T04:20:26;12.15;;;6.93;;
75924;SDS011;64604;44.752;37.674;2022-11-18T04:21:28;11.23;;;7.05;;
75924;SDS011;64604;44.752;37.674;2022-11-18T04:22:30;10.52;;;6.63;;
75924;SDS011;64604;44.752;37.674;2022-11-18T04:23:31;10.98;;;7.35;;
75924;SDS011;64604;44.752;37.674;2022-11-18T04:24:33;11.77;;;7.25;;
75924;SDS011;64604;44.752;37.674;2022-11-18T04:25:34;11.75;;;7.22;;
75924;SDS011;64604;44.752;37.674;2022-11-18T04:26:36;17.25;;;8.10;;
75924;SDS011;64604;44.752;37.674;2022-11-18T04:27:38;13.93;;;7.50;;
75924;SDS011;64604;44.752;37.674;2022-11-18T04:28:39;11.88;;;7.32;;
75924;SDS011;64604;44.752;37.674;2022-11-18T04:29:41;11.55;;;7.25;;
75924;SDS011;64604;44.752;37.674;2022-11-18T04:30:43;12.82;;;7.15;;
75924;SDS011;64604;44.752;37.674;2022-11-18T04:31:44;13.07;;;7.43;;
75924;SDS011;64604;44.752;37.674;2022-11-18T04:32:46;12.52;;;6.75;;
75924;SDS011;64604;44.752;37.674;2022-11-18T04:33:48;11.82;;;6.25;;
75924;SDS011;64604;44.752;37.674;2022-11-18T04:34:49;10.30;;;6.60;;
75924;SDS011;64604;44.752;37.674;2022-11-18T04:35:51;11.25;;;6.43;;
75924;SDS011;64604;44.752;37.674;2022-11-18T04:36:52;11.35;;;6.70;;
75924;SDS011;64604;44.752;37.674;2022-11-18T04:37:54;11.60;;;6.20;;
75924;SDS011;64604;44.752;37.674;2022-11-18T04:38:56;9.82;;;6.43;;
75924;SDS011;64604;44.752;37.674;2022-11-18T04:39:59;11.98;;;7.10;;
75924;SDS011;64604;44.752;37.674;2022-11-18T04:41:01;11.05;;;7.30;;
75924;SDS011;64604;44.752;37.674;2022-11-18T04:42:03;11.05;;;6.38;;
75924;SDS011;64604;44.752;37.674;2022-11-18T04:43:04;12.07;;;6.57;;
75924;SDS011;64604;44.752;37.674;2022-11-18T04:44:06;11.73;;;6.40;;
75924;SDS011;64604;44.752;37.674;2022-11-18T04:45:12;11.90;;;6.70;;
75924;SDS011;64604;44.752;37.674;2022-11-18T04:46:14;11.50;;;6.80;;
75924;SDS011;64604;44.752;37.674;2022-11-18T04:47:16;11.55;;;6.20;;
75924;SDS011;64604;44.752;37.674;2022-11-18T04:48:17;11.15;;;6.68;;
75924;SDS011;64604;44.752;37.674;2022-11-18T04:49:19;9.82;;;6.68;;
75924;SDS011;64604;44.752;37.674;2022-11-18T04:50:21;13.48;;;6.78;;
75924;SDS011;64604;44.752;37.674;2022-11-18T04:51:22;14.68;;;6.90;;
75924;SDS011;64604;44.752;37.674;2022-11-18T04:52:24;11.48;;;6.68;;
75924;SDS011;64604;44.752;37.674;2022-11-18T04:53:25;12.25;;;6.57;;
75924;SDS011;64604;44.752;37.674;2022-11-18T04:54:27;9.88;;;6.70;;
75924;SDS011;64604;44.752;37.674;2022-11-18T04:55:29;14.90;;;6.65;;
75924;SDS011;64604;44.752;37.674;2022-11-18T04:56:30;12.93;;;6.93;;
75924;SDS011;64604;44.752;37.674;2022-11-18T04:57:32;9.75;;;6.43;;
75924;SDS011;64604;44.752;37.674;2022-11-18T04:58:33;11.70;;;6.45;;
75924;SDS011;64604;44.752;37.674;2022-11-18T04:59:35;9.15;;;6.10;;
75924;SDS011;64604;44.752;37.674;2022-11-18T05:00:36;12.57;;;6.22;;
75924;SDS011;64604;44.752;37.674;2022-11-18T05:01:38;11.35;;;6.70;;
75924;SDS011;64604;44.752;37.674;2022-11-18T05:02:40;9.23;;;6.50;;
75924;SDS011;64604;44.752;37.674;2022-11-18T05:03:41;12.50;;;6.80;;
75924;SDS011;64604;44.752;37.674;2022-11-18T05:04:43;9.57;;;6.32;;
75924;SDS011;64604;44.752;37.674;2022-11-18T05:05:45;14.93;;;6.60;;
75924;SDS011;64604;44.752;37.674;2022-11-18T05:06:46;9.68;;;5.97;;
75924;SDS011;64604;44.752;37.674;2022-11-18T05:07:49;9.10;;;5.50;;
75924;SDS011;64604;44.752;37.674;2022-11-18T05:08:51;10.88;;;5.60;;
75924;SDS011;64604;44.752;37.674;2022-11-18T05:09:55;8.73;;;6.57;;
75924;SDS011;64604;44.752;37.674;2022-11-18T05:10:57;12.18;;;5.38;;
75924;SDS011;64604;44.752;37.674;2022-11-18T05:12:18;9.65;;;4.90;;
75924;SDS011;64604;44.752;37.674;2022-11-18T05:13:38;10.75;;;4.40;;
75924;SDS011;64604;44.752;37.674;2022-11-18T05:14:40;8.10;;;4.72;;
75924;SDS011;64604;44.752;37.674;2022-11-18T05:15:41;8.32;;;4.70;;
75924;SDS011;64604;44.752;37.674;2022-11-18T05:16:43;8.23;;;4.75;;
75924;SDS011;64604;44.752;37.674;2022-11-18T05:17:45;9.43;;;4.65;;
75924;SDS011;64604;44.752;37.674;2022-11-18T05:18:47;11.35;;;5.40;;
75924;SDS011;64604;44.752;37.674;2022-11-18T05:19:49;9.48;;;4.68;;
75924;SDS011;64604;44.752;37.674;2022-11-18T05:20:50;7.30;;;4.55;;
75924;SDS011;64604;44.752;37.674;2022-11-18T05:21:52;9.23;;;4.93;;
75924;SDS011;64604;44.752;37.674;2022-11-18T05:22:54;11.98;;;5.28;;
75924;SDS011;64604;44.752;37.674;2022-11-18T05:23:57;8.40;;;5.10;;
75924;SDS011;64604;44.752;37.674;2022-11-18T05:24:59;10.48;;;4.93;;
75924;SDS011;64604;44.752;37.674;2022-11-18T05:26:04;8.65;;;5.22;;
75924;SDS011;64604;44.752;37.674;2022-11-18T05:27:08;9.07;;;4.93;;
75924;SDS011;64604;44.752;37.674;2022-11-18T05:28:09;7.18;;;4.70;;
75924;SDS011;64604;44.752;37.674;2022-11-18T05:29:11;10.15;;;4.88;;
75924;SDS011;64604;44.752;37.674;2022-11-18T05:30:13;7.25;;;4.63;;
75924;SDS011;64604;44.752;37.674;2022-11-18T05:31:15;7.70;;;5.00;;
75924;SDS011;64604;44.752;37.674;2022-11-18T05:32:17;11.75;;;5.20;;
75924;SDS011;64604;44.752;37.674;2022-11-18T05:33:18;9.57;;;5.40;;
75924;SDS011;64604;44.752;37.674;2022-11-18T05:34:20;10.32;;;5.22;;
75924;SDS011;64604;44.752;37.674;2022-11-18T05:35:21;8.25;;;5.03;;
75924;SDS011;64604;44.752;37.674;2022-11-18T05:36:23;10.10;;;5.90;;
75924;SDS011;64604;44.752;37.674;2022-11-18T05:37:25;11.50;;;5.47;;
75924;SDS011;64604;44.752;37.674;2022-11-18T05:38:26;11.63;;;5.72;;
75924;SDS011;64604;44.752;37.674;2022-11-18T05:39:28;9.73;;;5.22;;
75924;SDS011;64604;44.752;37.674;2022-11-18T05:40:29;9.35;;;5.05;;
75924;SDS011;64604;44.752;37.674;2022-11-18T05:41:31;7.82;;;5.03;;
75924;SDS011;64604;44.752;37.674;2022-11-18T05:42:51;10.88;;;5.80;;
75924;SDS011;64604;44.752;37.674;2022-11-18T05:44:11;9.90;;;5.00;;
75924;SDS011;64604;44.752;37.674;2022-11-18T05:45:12;8.20;;;4.95;;
75924;SDS011;64604;44.752;37.674;2022-11-18T05:46:15;7.72;;;5.07;;
75924;SDS011;64604;44.752;37.674;2022-11-18T05:47:17;10.15;;;5.07;;
75924;SDS011;64604;44.752;37.674;2022-11-18T05:48:19;8.60;;;5.53;;
75924;SDS011;64604;44.752;37.674;2022-11-18T05:49:20;10.32;;;5.45;;
75924;SDS011;64604;44.752;37.674;2022-11-18T05:50:22;10.38;;;5.53;;
75924;SDS011;64604;44.752;37.674;2022-11-18T05:51:24;7.35;;;5.15;;
75924;SDS011;64604;44.752;37.674;2022-11-18T05:52:26;10.05;;;4.78;;
75924;SDS011;64604;44.752;37.674;2022-11-18T05:53:28;9.07;;;5.18;;
75924;SDS011;64604;44.752;37.674;2022-11-18T05:54:29;9.88;;;5.20;;
75924;SDS011;64604;44.752;37.674;2022-11-18T05:55:37;9.75;;;5.03;;
75924;SDS011;64604;44.752;37.674;2022-11-18T05:56:46;7.85;;;4.95;;
75924;SDS011;64604;44.752;37.674;2022-11-18T05:57:47;8.65;;;5.05;;
75924;SDS011;64604;44.752;37.674;2022-11-18T05:58:49;9.25;;;5.13;;
75924;SDS011;64604;44.752;37.674;2022-11-18T05:59:51;10.20;;;5.13;;
75924;SDS011;64604;44.752;37.674;2022-11-18T06:00:53;9.38;;;5.13;;
75924;SDS011;64604;44.752;37.674;2022-11-18T06:02:03;10.40;;;4.97;;
75924;SDS011;64604;44.752;37.674;2022-11-18T06:03:09;8.77;;;4.80;;
75924;SDS011;64604;44.752;37.674;2022-11-18T06:05:41;9.90;;;4.72;;
75924;SDS011;64604;44.752;37.674;2022-11-18T06:06:43;6.47;;;4.30;;
75924;SDS011;64604;44.752;37.674;2022-11-18T06:07:48;8.23;;;4.55;;
75924;SDS011;64604;44.752;37.674;2022-11-18T06:08:57;5.97;;;4.45;;
75924;SDS011;64604;44.752;37.674;2022-11-18T06:10:02;7.10;;;4.30;;
75924;SDS011;64604;44.752;37.674;2022-11-18T06:11:05;8.15;;;4.05;;
75924;SDS011;64604;44.752;37.674;2022-11-18T06:12:12;10.05;;;4.30;;
75924;SDS011;64604;44.752;37.674;2022-11-18T06:13:24;6.70;;;4.25;;
75924;SDS011;64604;44.752;37.674;2022-11-18T06:14:36;10.35;;;4.30;;
75924;SDS011;64604;44.752;37.674;2022-11-18T06:15:42;8.25;;;4.78;;
75924;SDS011;64604;44.752;37.674;2022-11-18T06:16:46;6.00;;;3.72;;
75924;SDS011;64604;44.752;37.674;2022-11-18T06:17:56;8.52;;;4.45;;
75924;SDS011;64604;44.752;37.674;2022-11-18T06:19:02;10.20;;;4.57;;
75924;SDS011;64604;44.752;37.674;2022-11-18T06:20:04;6.80;;;4.50;;
75924;SDS011;64604;44.752;37.674;2022-11-18T06:21:06;9.32;;;4.07;;
75924;SDS011;64604;44.752;37.674;2022-11-18T06:22:07;7.60;;;4.30;;
75924;SDS011;64604;44.752;37.674;2022-11-18T06:23:09;7.50;;;4.00;;
75924;SDS011;64604;44.752;37.674;2022-11-18T06:24:12;8.15;;;4.03;;
75924;SDS011;64604;44.752;37.674;2022-11-18T06:25:14;6.57;;;4.03;;
75924;SDS011;64604;44.752;37.674;2022-11-18T06:26:16;5.90;;;3.67;;
75924;SDS011;64604;44.752;37.674;2022-11-18T06:27:18;9.90;;;4.50;;
75924;SDS011;64604;44.752;37.674;2022-11-18T06:28:19;7.55;;;4.40;;
75924;SDS011;64604;44.752;37.674;2022-11-18T06:29:22;9.38;;;4.10;;
75924;SDS011;64604;44.752;37.674;2022-11-18T06:30:23;8.68;;;4.05;;
75924;SDS011;64604;44.752;37.674;2022-11-18T06:31:25;10.93;;;4.63;;
75924;SDS011;64604;44.752;37.674;2022-11-18T06:32:27;8.93;;;4.10;;
75924;SDS011;64604;44.752;37.674;2022-11-18T06:33:28;7.50;;;3.90;;
75924;SDS011;64604;44.752;37.674;2022-11-18T06:34:30;7.25;;;3.90;;
75924;SDS011;64604;44.752;37.674;2022-11-18T06:35:31;7.25;;;3.97;;
75924;SDS011;64604;44.752;37.674;2022-11-18T06:36:33;7.95;;;4.00;;
75924;SDS011;64604;44.752;37.674;2022-11-18T06:37:34;7.75;;;4.00;;
75924;SDS011;64604;44.752;37.674;2022-11-18T06:38:36;8.02;;;3.65;;
75924;SDS011;64604;44.752;37.674;2022-11-18T06:39:38;6.03;;;4.03;;
75924;SDS011;64604;44.752;37.674;2022-11-18T06:40:39;7.63;;;4.13;;